createdAt,value
2022-12-19T00:01:38.179Z,6.73
2022-12-19T00:04:08.791Z,5.00
2022-12-19T00:06:41.909Z,6.30
2022-12-19T00:09:11.627Z,6.30
2022-12-19T00:11:39.946Z,5.10
2022-12-19T00:14:07.775Z,6.10
2022-12-19T00:16:34.672Z,6.37
2022-12-19T00:19:02.180Z,4.90
2022-12-19T00:21:34.769Z,5.57
2022-12-19T00:24:03.719Z,6.70
2022-12-19T00:26:36.900Z,7.17
2022-12-19T00:29:14.106Z,5.97
2022-12-19T00:31:41.119Z,6.20
2022-12-19T00:34:09.203Z,6.17
2022-12-19T00:36:36.440Z,6.40
2022-12-19T00:39:07.785Z,6.97
2022-12-19T00:41:36.385Z,7.37
2022-12-19T00:44:05.794Z,6.93
2022-12-19T00:46:34.806Z,7.67
2022-12-19T00:49:02.110Z,6.87
2022-12-19T00:51:32.577Z,7.50
2022-12-19T00:53:59.508Z,7.40
2022-12-19T00:56:37.960Z,6.67
2022-12-19T00:59:06.924Z,7.73
2022-12-19T01:01:38.203Z,6.77
2022-12-19T01:06:58.888Z,6.70
2022-12-19T01:09:32.991Z,7.47
2022-12-19T01:12:18.417Z,7.10
2022-12-19T01:14:45.080Z,7.63
2022-12-19T01:17:12.541Z,5.87
2022-12-19T01:19:44.028Z,7.77
2022-12-19T01:22:13.161Z,6.37
2022-12-19T01:24:40.204Z,6.70
2022-12-19T01:27:08.135Z,7.53
2022-12-19T01:29:36.686Z,6.87
2022-12-19T01:32:12.585Z,7.43
2022-12-19T01:34:39.143Z,6.87
2022-12-19T01:37:05.708Z,7.27
2022-12-19T01:39:32.261Z,7.73
2022-12-19T01:42:01.426Z,8.00
2022-12-19T01:44:28.434Z,7.93
2022-12-19T01:47:00.347Z,8.20
2022-12-19T01:49:34.370Z,7.93
2022-12-19T01:52:04.881Z,7.10
2022-12-19T01:54:37.142Z,7.93
2022-12-19T01:57:10.573Z,8.20
2022-12-19T01:59:42.308Z,8.20
2022-12-19T02:02:31.442Z,8.53
2022-12-19T02:04:58.068Z,7.13
2022-12-19T02:07:26.205Z,8.13
2022-12-19T02:09:57.364Z,8.80
2022-12-19T02:12:36.521Z,7.83
2022-12-19T02:15:05.393Z,7.50
2022-12-19T02:17:54.971Z,8.27
2022-12-19T02:20:47.992Z,9.00
2022-12-19T02:23:36.119Z,7.67
2022-12-19T02:26:26.827Z,8.00
2022-12-19T02:28:58.800Z,7.60
2022-12-19T02:31:25.419Z,6.90
2022-12-19T02:34:16.381Z,7.27
2022-12-19T02:37:02.492Z,8.87
2022-12-19T02:39:41.242Z,7.40
2022-12-19T02:42:11.192Z,6.70
2022-12-19T02:44:47.266Z,7.33
2022-12-19T02:47:16.741Z,9.20
2022-12-19T02:49:43.306Z,8.80
2022-12-19T02:52:32.919Z,9.30
2022-12-19T02:55:06.214Z,8.20
2022-12-19T02:57:58.224Z,8.80
2022-12-19T03:00:27.951Z,9.43
2022-12-19T03:03:21.993Z,9.20
2022-12-19T03:06:06.517Z,8.87
2022-12-19T03:08:58.088Z,9.10
2022-12-19T03:11:28.420Z,9.87
2022-12-19T03:14:01.834Z,8.73
2022-12-19T03:16:29.111Z,8.17
2022-12-19T03:18:56.811Z,9.00
2022-12-19T03:21:29.334Z,9.00
2022-12-19T03:23:57.709Z,9.10
2022-12-19T03:26:29.047Z,10.60
2022-12-19T03:29:09.112Z,8.60
2022-12-19T03:31:37.929Z,8.40
2022-12-19T03:34:26.601Z,8.70
2022-12-19T03:36:57.367Z,9.60
2022-12-19T03:39:26.316Z,9.50
2022-12-19T03:42:13.089Z,8.27
2022-12-19T03:44:42.479Z,9.70
2022-12-19T03:47:24.433Z,9.70
2022-12-19T03:49:51.761Z,9.83
2022-12-19T03:52:35.724Z,10.53
2022-12-19T03:55:12.284Z,9.03
2022-12-19T03:57:47.872Z,9.83
2022-12-19T04:00:17.439Z,8.57
2022-12-19T04:02:47.745Z,10.70
2022-12-19T04:05:19.326Z,11.43
2022-12-19T04:07:48.036Z,9.33
2022-12-19T04:10:18.420Z,9.70
2022-12-19T04:12:58.284Z,9.63
2022-12-19T04:15:35.015Z,9.43
2022-12-19T04:18:06.581Z,9.57
2022-12-19T04:20:36.807Z,9.37
2022-12-19T04:23:21.340Z,10.00
2022-12-19T04:25:52.310Z,9.90
2022-12-19T04:28:25.495Z,10.27
2022-12-19T04:30:53.843Z,10.03
2022-12-19T04:33:20.606Z,9.00
2022-12-19T04:35:47.238Z,10.80
2022-12-19T04:38:13.947Z,8.30
2022-12-19T04:40:41.684Z,9.27
2022-12-19T04:43:09.343Z,10.33
2022-12-19T04:45:36.725Z,11.70
2022-12-19T04:48:03.949Z,9.17
2022-12-19T04:50:32.812Z,8.80
2022-12-19T04:52:59.627Z,10.13
2022-12-19T04:55:26.678Z,10.00
2022-12-19T04:57:53.241Z,8.37
2022-12-19T05:00:19.925Z,8.50
2022-12-19T05:02:46.671Z,9.40
2022-12-19T05:05:13.392Z,9.70
2022-12-19T05:07:40.623Z,9.70
2022-12-19T05:10:07.860Z,10.30
2022-12-19T05:12:34.472Z,9.33
2022-12-19T05:15:01.673Z,10.00
2022-12-19T05:17:28.234Z,9.83
2022-12-19T05:19:54.798Z,9.20
2022-12-19T05:22:22.000Z,9.30
2022-12-19T05:24:48.547Z,10.17
2022-12-19T05:27:15.146Z,11.50
2022-12-19T05:29:41.858Z,10.23
2022-12-19T05:32:08.539Z,10.20
2022-12-19T05:34:35.178Z,10.83
2022-12-19T05:37:03.452Z,10.67
2022-12-19T05:39:30.429Z,9.40
2022-12-19T05:41:57.028Z,9.20
2022-12-19T05:44:24.624Z,11.60
2022-12-19T05:46:51.680Z,10.43
2022-12-19T05:49:18.463Z,10.37
2022-12-19T05:51:45.338Z,10.00
2022-12-19T05:54:11.901Z,10.30
2022-12-19T05:56:38.461Z,9.80
2022-12-19T05:59:05.119Z,10.83
2022-12-19T06:01:32.605Z,10.20
2022-12-19T06:03:59.209Z,10.20
2022-12-19T06:06:26.870Z,8.90
2022-12-19T06:08:58.344Z,10.90
2022-12-19T06:11:26.861Z,11.80
2022-12-19T06:13:54.065Z,9.60
2022-12-19T06:16:22.595Z,11.23
2022-12-19T06:18:49.322Z,10.33
2022-12-19T06:21:18.489Z,10.30
2022-12-19T06:23:45.830Z,9.87
2022-12-19T06:26:19.125Z,10.00
2022-12-19T06:28:48.084Z,10.10
2022-12-19T06:31:15.045Z,9.17
2022-12-19T06:33:41.717Z,10.50
2022-12-19T06:36:13.660Z,9.83
2022-12-19T06:38:40.473Z,10.23
2022-12-19T06:41:25.982Z,8.23
2022-12-19T06:43:53.844Z,9.87
2022-12-19T06:46:20.855Z,10.40
2022-12-19T06:48:47.853Z,9.73
2022-12-19T06:51:14.517Z,10.60
2022-12-19T06:53:41.100Z,11.67
2022-12-19T06:56:08.342Z,10.83
2022-12-19T06:58:35.046Z,11.00
2022-12-19T07:01:01.826Z,11.10
2022-12-19T07:03:38.011Z,11.30
2022-12-19T07:06:05.687Z,11.93
2022-12-19T07:08:33.270Z,11.37
2022-12-19T07:11:00.111Z,9.40
2022-12-19T07:13:27.400Z,11.50
2022-12-19T07:15:57.442Z,10.20
2022-12-19T07:18:24.062Z,11.20
2022-12-19T07:20:50.735Z,11.57
2022-12-19T07:23:20.373Z,11.80
2022-12-19T07:25:47.014Z,12.40
2022-12-19T07:28:14.582Z,12.97
2022-12-19T07:30:41.259Z,12.47
2022-12-19T07:33:10.947Z,14.20
2022-12-19T07:35:38.494Z,12.60
2022-12-19T07:38:06.688Z,11.70
2022-12-19T07:40:33.797Z,11.27
2022-12-19T07:43:05.683Z,12.90
2022-12-19T07:45:33.132Z,13.70
2022-12-19T07:48:01.522Z,13.60
2022-12-19T07:50:28.939Z,11.67
2022-12-19T07:52:56.978Z,13.50
2022-12-19T07:55:23.615Z,14.47
2022-12-19T07:57:50.784Z,13.63
2022-12-19T08:00:18.473Z,13.97
2022-12-19T08:02:45.893Z,13.87
2022-12-19T08:05:12.656Z,13.10
2022-12-19T08:07:39.719Z,12.90
2022-12-19T08:10:06.984Z,13.83
2022-12-19T08:12:34.281Z,14.57
2022-12-19T08:15:01.339Z,13.00
2022-12-19T08:17:28.283Z,14.37
2022-12-19T08:19:54.860Z,14.20
2022-12-19T08:22:21.439Z,14.80
2022-12-19T08:24:48.146Z,14.30
2022-12-19T08:27:16.530Z,15.10
2022-12-19T08:29:43.063Z,15.10
2022-12-19T08:32:09.643Z,13.70
2022-12-19T08:34:36.193Z,14.03
2022-12-19T08:37:02.914Z,13.83
2022-12-19T08:39:29.468Z,15.03
2022-12-19T08:41:56.529Z,13.17
2022-12-19T08:44:23.201Z,14.33
2022-12-19T08:46:50.641Z,15.07
2022-12-19T08:49:19.937Z,13.97
2022-12-19T08:51:46.828Z,16.00
2022-12-19T08:54:13.375Z,14.97
2022-12-19T08:56:42.848Z,15.37
2022-12-19T08:59:13.714Z,15.43
2022-12-19T09:01:42.828Z,15.27
2022-12-19T09:05:31.364Z,12.10
2022-12-19T09:06:56.526Z,15.23
2022-12-19T09:09:23.100Z,16.40
2022-12-19T09:11:49.775Z,14.60
2022-12-19T09:14:20.972Z,16.40
2022-12-19T09:16:48.601Z,14.10
2022-12-19T09:19:16.380Z,16.57
2022-12-19T09:21:43.292Z,14.60
2022-12-19T09:24:10.610Z,15.23
2022-12-19T09:26:39.258Z,17.53
2022-12-19T09:29:11.017Z,15.20
2022-12-19T09:31:46.929Z,14.50
2022-12-19T09:34:14.029Z,16.50
2022-12-19T09:36:40.907Z,16.60
2022-12-19T09:39:07.786Z,14.00
2022-12-19T09:41:45.046Z,14.70
2022-12-19T09:44:29.994Z,14.93
2022-12-19T09:47:00.898Z,15.70
2022-12-19T09:49:48.145Z,15.50
2022-12-19T09:52:29.762Z,14.93
2022-12-19T09:55:19.951Z,15.57
2022-12-19T09:58:01.590Z,13.67
2022-12-19T10:00:40.195Z,16.43
2022-12-19T10:03:21.945Z,14.37
2022-12-19T10:07:11.069Z,15.37
2022-12-19T10:09:18.925Z,15.10
2022-12-19T10:12:36.579Z,17.90
2022-12-19T10:15:01.844Z,15.70
2022-12-19T10:17:34.423Z,15.73
2022-12-19T10:20:03.623Z,17.40
2022-12-19T10:22:54.248Z,15.47
2022-12-19T10:25:58.759Z,15.40
2022-12-19T10:28:42.983Z,17.03
2022-12-19T10:31:21.447Z,14.63
2022-12-19T10:34:12.990Z,16.87
2022-12-19T10:39:41.213Z,14.03
2022-12-19T10:42:33.236Z,15.20
2022-12-19T10:45:05.745Z,16.07
2022-12-19T10:47:32.320Z,15.57
2022-12-19T10:50:03.875Z,14.13
2022-12-19T10:52:45.954Z,15.40
2022-12-19T10:55:41.313Z,12.53
2022-12-19T10:58:26.411Z,13.03
2022-12-19T11:01:10.158Z,12.50
2022-12-19T11:03:38.807Z,12.43
2022-12-19T11:06:06.402Z,13.87
2022-12-19T11:08:35.682Z,12.90
2022-12-19T11:13:00.324Z,13.43
2022-12-19T11:17:38.234Z,14.60
2022-12-19T11:22:22.755Z,12.93
2022-12-19T11:29:16.069Z,15.30
2022-12-19T11:29:39.513Z,13.80
2022-12-19T11:30:40.968Z,13.47
2022-12-19T11:30:46.605Z,14.20
2022-12-19T11:34:21.410Z,14.27
2022-12-19T11:37:19.266Z,14.33
2022-12-19T11:40:01.229Z,13.20
2022-12-19T11:43:25.463Z,12.47
2022-12-19T11:46:11.384Z,13.43
2022-12-19T11:48:48.004Z,12.40
2022-12-19T11:51:20.927Z,12.07
2022-12-19T11:53:53.206Z,14.93
2022-12-19T11:56:23.295Z,16.57
2022-12-19T11:58:56.609Z,12.93
2022-12-19T12:01:29.265Z,13.50
2022-12-19T12:04:19.645Z,13.53
2022-12-19T12:06:50.837Z,14.17
2022-12-19T12:10:44.424Z,13.87
2022-12-19T12:20:25.298Z,11.80
2022-12-19T12:28:19.519Z,12.23
2022-12-19T12:31:22.093Z,11.67
2022-12-19T12:31:30.963Z,12.77
2022-12-19T12:31:42.780Z,12.33
2022-12-19T12:31:44.728Z,11.50
2022-12-19T12:32:01.912Z,10.90
2022-12-19T12:35:56.946Z,10.53
2022-12-19T12:40:23.655Z,11.97
2022-12-19T12:43:23.063Z,10.70
2022-12-19T12:45:49.759Z,11.33
2022-12-19T12:48:42.951Z,11.00
2022-12-19T12:51:11.005Z,10.97
2022-12-19T12:53:42.771Z,10.73
2022-12-19T12:56:12.417Z,10.97
2022-12-19T12:58:43.369Z,10.07
2022-12-19T13:01:33.023Z,11.13
2022-12-19T13:04:25.769Z,11.47
2022-12-19T13:06:52.328Z,10.90
2022-12-19T13:09:27.804Z,11.70
2022-12-19T13:12:21.205Z,12.00
2022-12-19T13:14:50.447Z,10.97
2022-12-19T13:17:32.291Z,11.80
2022-12-19T13:20:04.675Z,11.40
2022-12-19T13:22:32.287Z,12.67
2022-12-19T13:25:00.705Z,13.23
2022-12-19T13:27:40.716Z,12.93
2022-12-19T13:30:07.998Z,12.93
2022-12-19T13:32:40.483Z,12.30
2022-12-19T13:36:47.768Z,12.80
2022-12-19T13:39:54.779Z,13.03
2022-12-19T13:41:30.723Z,13.70
2022-12-19T13:43:59.850Z,13.53
2022-12-19T13:46:38.393Z,14.80
2022-12-19T13:49:34.375Z,13.93
2022-12-19T13:52:02.952Z,13.10
2022-12-19T13:54:34.725Z,13.77
2022-12-19T13:57:04.210Z,15.00
2022-12-19T13:59:38.905Z,15.73
2022-12-19T14:02:10.852Z,14.17
2022-12-19T14:04:40.443Z,14.17
2022-12-19T14:07:41.321Z,14.40
2022-12-19T14:11:34.297Z,13.87
2022-12-19T14:13:48.868Z,14.40
2022-12-19T14:16:18.658Z,13.73
2022-12-19T14:18:50.227Z,14.90
2022-12-19T14:22:05.227Z,14.30
2022-12-19T14:24:28.644Z,14.63
2022-12-19T14:28:25.853Z,14.67
2022-12-19T14:30:30.533Z,14.63
2022-12-19T14:33:40.605Z,15.70
2022-12-19T14:36:10.095Z,14.80
2022-12-19T14:39:24.522Z,15.30
2022-12-19T14:41:50.875Z,15.93
2022-12-19T14:51:09.061Z,15.70
2022-12-19T14:52:25.699Z,14.40
2022-12-19T14:54:13.815Z,15.37
2022-12-19T14:54:50.381Z,15.50
2022-12-19T14:56:16.821Z,15.30
2022-12-19T14:58:53.139Z,15.10
2022-12-19T15:01:27.782Z,13.93
2022-12-19T15:04:48.046Z,13.83
2022-12-19T15:07:06.813Z,16.00
2022-12-19T15:11:06.498Z,15.20
2022-12-19T15:14:47.964Z,16.07
2022-12-19T15:16:05.837Z,17.50
2022-12-19T15:18:32.483Z,16.13
2022-12-19T15:21:01.730Z,15.70
2022-12-19T15:23:29.398Z,16.47
2022-12-19T15:26:05.113Z,15.40
2022-12-19T15:28:41.295Z,21.13
2022-12-19T15:31:27.487Z,17.93
2022-12-19T15:36:41.235Z,17.87
2022-12-19T15:39:07.847Z,16.70
2022-12-19T15:41:34.674Z,15.87
2022-12-19T15:44:13.630Z,20.80
2022-12-19T15:46:46.628Z,17.57
2022-12-19T15:49:19.835Z,15.40
2022-12-19T15:51:46.724Z,16.53
2022-12-19T15:56:59.815Z,16.30
2022-12-19T15:59:38.026Z,17.50
2022-12-19T16:02:18.219Z,15.93
2022-12-19T16:04:46.597Z,16.70
2022-12-19T16:07:16.117Z,17.73
2022-12-19T16:09:42.827Z,16.70
2022-12-19T16:12:15.382Z,16.60
2022-12-19T16:14:42.500Z,16.93
2022-12-19T16:17:16.915Z,17.43
2022-12-19T16:19:43.668Z,17.67
2022-12-19T16:22:19.590Z,17.20
2022-12-19T16:24:46.844Z,17.90
2022-12-19T16:27:28.940Z,16.70
2022-12-19T16:29:56.969Z,19.30
2022-12-19T16:32:24.600Z,23.10
2022-12-19T16:34:52.313Z,22.30
2022-12-19T16:37:18.948Z,21.10
2022-12-19T16:39:45.928Z,18.47
2022-12-19T16:42:17.598Z,17.87
2022-12-19T16:44:48.041Z,17.40
2022-12-19T16:47:17.577Z,17.90
2022-12-19T16:49:44.973Z,17.30
2022-12-19T16:52:11.845Z,15.80
2022-12-19T16:54:38.401Z,17.20
2022-12-19T16:57:15.751Z,17.10
2022-12-19T16:59:42.359Z,17.43
2022-12-19T17:02:37.679Z,16.93
2022-12-19T17:05:04.715Z,17.20
2022-12-19T17:07:32.446Z,18.30
2022-12-19T17:09:59.034Z,17.13
2022-12-19T17:12:27.071Z,17.67
2022-12-19T17:14:54.030Z,18.50
2022-12-19T17:17:20.656Z,17.43
2022-12-19T17:19:47.382Z,17.17
2022-12-19T17:22:16.349Z,16.53
2022-12-19T17:24:47.903Z,18.47
2022-12-19T17:27:17.321Z,18.60
2022-12-19T17:29:44.401Z,17.70
2022-12-19T17:32:23.239Z,17.40
2022-12-19T17:34:52.725Z,18.57
2022-12-19T17:37:19.795Z,16.87
2022-12-19T17:39:48.349Z,15.03
2022-12-19T17:42:21.552Z,13.40
2022-12-19T17:44:48.134Z,15.77
2022-12-19T17:47:16.305Z,14.70
2022-12-19T17:49:43.191Z,16.43
2022-12-19T17:52:15.187Z,16.30
2022-12-19T17:54:42.392Z,17.40
2022-12-19T17:57:13.680Z,17.10
2022-12-19T17:59:41.729Z,16.53
2022-12-19T18:02:22.932Z,14.67
2022-12-19T18:04:51.080Z,15.23
2022-12-19T18:07:19.236Z,16.40
2022-12-19T18:09:46.809Z,14.17
2022-12-19T18:12:14.023Z,14.70
2022-12-19T18:14:40.654Z,15.67
2022-12-19T18:17:07.458Z,16.70
2022-12-19T18:19:34.655Z,14.00
2022-12-19T18:22:01.277Z,14.87
2022-12-19T18:24:28.085Z,15.33
2022-12-19T18:26:55.873Z,14.47
2022-12-19T18:29:22.813Z,13.90
2022-12-19T18:31:51.438Z,16.33
2022-12-19T18:34:23.979Z,14.87
2022-12-19T18:36:51.681Z,15.50
2022-12-19T18:39:24.148Z,15.67
2022-12-19T18:41:51.381Z,15.60
2022-12-19T18:44:18.764Z,14.60
2022-12-19T18:46:48.657Z,14.57
2022-12-19T18:49:16.748Z,14.70
2022-12-19T18:51:44.629Z,15.97
2022-12-19T18:54:17.557Z,14.00
2022-12-19T18:56:44.974Z,13.43
2022-12-19T18:59:12.059Z,15.00
2022-12-19T19:01:46.173Z,14.70
2022-12-19T19:04:16.781Z,14.57
2022-12-19T19:06:50.396Z,16.10
2022-12-19T19:09:20.251Z,14.07
2022-12-19T19:12:18.939Z,15.23
2022-12-19T19:14:45.568Z,13.90
2022-12-19T19:17:23.471Z,15.07
2022-12-19T19:19:50.087Z,13.40
2022-12-19T19:22:17.380Z,13.87
2022-12-19T19:24:43.948Z,15.90
2022-12-19T19:27:10.731Z,14.67
2022-12-19T19:29:37.301Z,12.93
2022-12-19T19:32:03.931Z,15.67
2022-12-19T19:34:35.043Z,14.70
2022-12-19T19:37:04.804Z,15.67
2022-12-19T19:39:34.200Z,15.60
2022-12-19T19:42:01.450Z,15.67
2022-12-19T19:44:28.545Z,16.17
2022-12-19T19:46:55.400Z,14.07
2022-12-19T19:49:23.369Z,13.67
2022-12-19T19:51:52.358Z,13.57
2022-12-19T19:54:22.582Z,13.63
2022-12-19T19:56:49.122Z,14.27
2022-12-19T19:59:15.963Z,14.40
2022-12-19T20:01:43.198Z,13.50
2022-12-19T20:04:10.217Z,14.27
2022-12-19T20:06:37.015Z,15.47
2022-12-19T20:09:04.416Z,13.20
2022-12-19T20:11:31.236Z,14.47
2022-12-19T20:13:57.758Z,13.63
2022-12-19T20:16:25.305Z,13.07
2022-12-19T20:18:53.257Z,12.70
2022-12-19T20:21:20.750Z,14.50
2022-12-19T20:23:48.006Z,14.30
2022-12-19T20:26:16.264Z,13.70
2022-12-19T20:28:48.808Z,12.40
2022-12-19T20:31:23.233Z,14.50
2022-12-19T20:33:53.016Z,13.40
2022-12-19T20:36:20.437Z,11.70
2022-12-19T20:38:48.450Z,13.90
2022-12-19T20:41:16.131Z,15.60
2022-12-19T20:43:42.931Z,14.83
2022-12-19T20:46:12.336Z,14.20
2022-12-19T20:48:39.637Z,12.47
2022-12-19T20:51:07.481Z,13.30
2022-12-19T20:53:36.409Z,14.23
2022-12-19T20:56:04.332Z,13.27
2022-12-19T20:58:33.598Z,12.67
2022-12-19T21:01:24.099Z,15.20
2022-12-19T21:03:51.721Z,12.33
2022-12-19T21:06:20.369Z,13.40
2022-12-19T21:08:47.676Z,13.63
2022-12-19T21:11:15.526Z,13.90
2022-12-19T21:13:43.686Z,13.80
2022-12-19T21:16:13.982Z,13.13
2022-12-19T21:18:43.500Z,14.27
2022-12-19T21:21:15.031Z,13.97
2022-12-19T21:23:42.765Z,13.50
2022-12-19T21:26:10.726Z,13.60
2022-12-19T21:28:38.011Z,11.57
2022-12-19T21:31:15.177Z,13.20
2022-12-19T21:33:42.188Z,13.00
2022-12-19T21:36:12.193Z,13.13
2022-12-19T21:38:39.430Z,12.67
2022-12-19T21:41:07.576Z,13.03
2022-12-19T21:43:37.097Z,12.77
2022-12-19T21:46:15.087Z,14.00
2022-12-19T21:48:45.919Z,14.13
2022-12-19T21:51:14.478Z,13.87
2022-12-19T21:53:41.288Z,11.70
2022-12-19T21:56:18.437Z,12.60
2022-12-19T21:58:45.747Z,12.43
2022-12-19T22:01:15.664Z,12.53
2022-12-19T22:03:43.123Z,13.00
2022-12-19T22:06:27.790Z,11.80
2022-12-19T22:08:55.247Z,11.60
2022-12-19T22:11:22.330Z,12.57
2022-12-19T22:13:49.897Z,13.03
2022-12-19T22:16:17.476Z,10.40
2022-12-19T22:18:44.664Z,11.47
2022-12-19T22:21:15.824Z,11.40
2022-12-19T22:23:42.903Z,12.67
2022-12-19T22:26:14.207Z,10.47
2022-12-19T22:28:43.528Z,11.23
2022-12-19T22:31:20.097Z,11.10
2022-12-19T22:33:48.509Z,11.37
2022-12-19T22:36:18.359Z,12.17
2022-12-19T22:38:49.556Z,11.07
2022-12-19T22:41:18.759Z,12.30
2022-12-19T22:43:46.236Z,12.53
2022-12-19T22:46:21.929Z,10.37
2022-12-19T22:48:50.263Z,12.77
2022-12-19T22:51:19.486Z,11.27
2022-12-19T22:53:47.295Z,11.80
2022-12-19T22:56:19.823Z,15.50
2022-12-19T22:58:48.677Z,14.23
2022-12-19T23:01:18.872Z,14.37
2022-12-19T23:03:48.167Z,13.30
2022-12-19T23:06:16.616Z,11.53
2022-12-19T23:08:43.884Z,12.40
2022-12-19T23:11:14.017Z,12.40
2022-12-19T23:13:41.472Z,15.00
2022-12-19T23:16:08.821Z,15.27
2022-12-19T23:18:35.841Z,15.50
2022-12-19T23:21:09.117Z,14.07
2022-12-19T23:23:41.954Z,13.10
2022-12-19T23:26:16.798Z,13.90
2022-12-19T23:29:08.054Z,11.33
2022-12-19T23:31:38.973Z,12.13
2022-12-19T23:34:05.987Z,14.10
2022-12-19T23:39:19.491Z,12.43
2022-12-19T23:41:46.123Z,11.60
2022-12-19T23:44:12.730Z,11.13
2022-12-19T23:46:40.121Z,11.10
2022-12-19T23:49:07.573Z,11.77
2022-12-19T23:51:34.690Z,11.70
2022-12-19T23:54:01.267Z,11.80
2022-12-19T23:56:31.352Z,10.20
2022-12-19T23:58:58.659Z,10.90
